Time;durP1;ratioP1;P1;durP2;ratioP2;P2;SDS_P1;SDS_P2;PMS_P1;PMS_P2;Temp;Humidity;BMP_temperature;BMP_pressure;BME280_temperature;BME280_humidity;BME280_pressure;Samples;Min_cycle;Max_cycle;Signal;HPM_P1;HPM_P2
2023/05/12 00:00:55;;;;;;;8.13;2.62;;;;;;;14.37;59.98;99757.84;4470206;32;20118;-91
2023/05/12 00:03:21;;;;;;;6.03;2.80;;;;;;;14.39;59.99;99758.59;4458953;32;20165;-91
2023/05/12 00:05:47;;;;;;;5.90;3.62;;;;;;;14.29;59.98;99759.13;4471700;32;20119;-91
2023/05/12 00:08:12;;;;;;;4.50;2.97;;;;;;;14.24;59.97;99754.09;4471149;32;24724;-91
2023/05/12 00:10:37;;;;;;;4.10;2.83;;;;;;;14.36;59.98;99750.06;4458626;32;20121;-90
2023/05/12 00:13:03;;;;;;;4.40;3.12;;;;;;;14.24;59.97;99750.66;4445471;32;20114;-91
2023/05/12 00:15:28;;;;;;;5.30;3.30;;;;;;;14.30;59.97;99748.56;4465022;32;20123;-91
2023/05/12 00:17:54;;;;;;;4.53;3.00;;;;;;;14.33;59.98;99743.19;4458171;32;23743;-90
2023/05/12 00:20:19;;;;;;;5.12;3.22;;;;;;;14.34;59.98;99741.41;4462400;32;20129;-89
2023/05/12 00:22:44;;;;;;;13.90;3.67;;;;;;;14.20;59.97;99749.94;4482172;32;34200;-90
2023/05/12 00:25:10;;;;;;;5.80;3.40;;;;;;;14.15;59.97;99738.81;4468800;32;20124;-90
2023/05/12 00:27:35;;;;;;;6.57;3.30;;;;;;;14.32;59.97;99738.88;4473375;32;20100;-89
2023/05/12 00:30:00;;;;;;;6.53;3.00;;;;;;;14.26;59.98;99735.72;4475245;32;24146;-90
2023/05/12 00:32:26;;;;;;;7.03;3.80;;;;;;;14.37;59.98;99741.28;4482448;32;20804;-89
2023/05/12 00:34:53;;;;;;;5.03;3.30;;;;;;;14.33;59.98;99737.09;4471577;32;20119;-89
2023/05/12 00:37:18;;;;;;;6.07;3.85;;;;;;;14.39;59.97;99737.66;4458807;32;20472;-89
2023/05/12 00:39:44;;;;;;;4.72;3.30;;;;;;;14.39;59.99;99735.03;4471552;32;20151;-89
2023/05/12 00:42:10;;;;;;;6.45;3.40;;;;;;;14.35;59.98;99735.25;4471650;32;20441;-89
2023/05/12 00:44:36;;;;;;;5.45;3.20;;;;;;;14.35;59.98;99732.66;4459672;32;20490;-89
2023/05/12 00:47:02;;;;;;;6.45;3.87;;;;;;;14.41;59.98;99732.34;4486429;32;20109;-89
2023/05/12 00:49:27;;;;;;;4.75;2.95;;;;;;;14.25;59.96;99727.00;4477205;32;20073;-91
2023/05/12 00:51:55;;;;;;;4.47;3.60;;;;;;;14.31;59.97;99723.25;4471568;32;20155;-90
2023/05/12 00:54:21;;;;;;;5.10;3.00;;;;;;;14.22;59.97;99727.16;4451033;32;20096;-91
2023/05/12 00:56:46;;;;;;;4.95;3.25;;;;;;;14.25;59.98;99729.63;4456287;32;20120;-92
2023/05/12 00:59:12;;;;;;;6.40;3.58;;;;;;;14.29;59.98;99727.72;4471096;32;20414;-91
2023/05/12 01:01:37;;;;;;;7.45;3.47;;;;;;;14.38;59.98;99724.63;4482789;32;25446;-90
2023/05/12 01:04:03;;;;;;;4.70;3.33;;;;;;;14.23;59.97;99725.38;4463232;32;20477;-90
2023/05/12 01:06:30;;;;;;;4.60;3.20;;;;;;;14.20;59.97;99721.16;4468950;32;20140;-90
2023/05/12 01:08:55;;;;;;;5.53;3.60;;;;;;;14.28;59.98;99728.63;4463436;32;20435;-91
2023/05/12 01:11:21;;;;;;;9.45;3.53;;;;;;;14.25;59.96;99713.91;4459405;32;24269;-90
2023/05/12 01:13:47;;;;;;;5.05;3.50;;;;;;;14.18;59.97;99722.97;4476581;32;20116;-90
2023/05/12 01:16:12;;;;;;;5.22;3.53;;;;;;;14.22;59.97;99718.47;4476287;32;20527;-90
2023/05/12 01:18:38;;;;;;;7.22;3.12;;;;;;;14.27;59.98;99724.31;4468922;32;20142;-91
2023/05/12 01:21:03;;;;;;;6.35;3.25;;;;;;;14.33;59.98;99732.72;4471262;32;20100;-90
2023/05/12 01:23:36;;;;;;;8.68;3.33;;;;;;;14.42;59.98;99729.66;4463140;32;20105;-91
2023/05/12 01:26:10;;;;;;;5.87;3.25;;;;;;;14.33;59.98;99727.47;4463304;32;20089;-91
2023/05/12 01:28:36;;;;;;;5.45;3.35;;;;;;;14.21;59.97;99724.63;4462620;32;29045;-89
2023/05/12 01:31:02;;;;;;;5.47;3.15;;;;;;;14.36;59.97;99722.09;4475844;32;20334;-91
2023/05/12 01:33:28;;;;;;;5.85;3.37;;;;;;;14.40;59.99;99725.41;4460523;32;20126;-92
2023/05/12 01:35:53;;;;;;;6.47;3.47;;;;;;;14.37;59.98;99726.41;4464257;32;20123;-88
2023/05/12 01:38:18;;;;;;;4.47;3.65;;;;;;;14.27;59.97;99727.78;4476126;32;20124;-89
2023/05/12 01:40:44;;;;;;;7.30;3.12;;;;;;;14.29;59.97;99728.56;4475900;32;20510;-89
2023/05/12 01:43:09;;;;;;;5.75;3.55;;;;;;;14.32;59.97;99733.63;4489637;32;28841;-90
2023/05/12 01:45:35;;;;;;;4.32;2.87;;;;;;;14.29;59.97;99732.94;4462907;32;20166;-89
2023/05/12 01:48:00;;;;;;;5.45;3.65;;;;;;;14.25;59.96;99729.63;4475937;32;20080;-89
2023/05/12 01:50:26;;;;;;;4.15;2.97;;;;;;;14.19;59.97;99729.91;4462277;32;23469;-89
2023/05/12 01:52:51;;;;;;;5.22;3.55;;;;;;;14.29;59.98;99735.56;4481653;32;20099;-90
2023/05/12 01:55:17;;;;;;;5.05;3.42;;;;;;;14.33;59.96;99737.97;4473683;32;20105;-89
2023/05/12 01:57:42;;;;;;;5.22;3.22;;;;;;;14.34;59.98;99739.66;4488183;32;31583;-88
2023/05/12 02:00:08;;;;;;;6.00;3.22;;;;;;;14.32;59.97;99736.25;4472467;32;20127;-87
2023/05/12 02:02:33;;;;;;;6.75;3.72;;;;;;;14.29;59.97;99740.78;4455284;32;20131;-88
2023/05/12 02:04:59;;;;;;;9.73;3.95;;;;;;;14.27;59.97;99745.25;4475879;32;20415;-89
2023/05/12 02:07:24;;;;;;;4.90;3.12;;;;;;;14.25;59.98;99742.72;4476087;32;20132;-90
2023/05/12 02:09:50;;;;;;;5.15;3.37;;;;;;;14.27;59.97;99746.09;4476645;32;20132;-90
2023/05/12 02:12:15;;;;;;;4.10;3.17;;;;;;;14.22;59.97;99740.25;4494276;32;20293;-88
2023/05/12 02:14:40;;;;;;;4.53;3.20;;;;;;;14.12;59.96;99749.44;4486671;32;20135;-90
2023/05/12 02:17:06;;;;;;;4.30;2.83;;;;;;;14.12;59.96;99745.03;4480489;32;20097;-91
2023/05/12 02:19:31;;;;;;;6.00;2.90;;;;;;;14.22;59.97;99742.03;4476088;32;20484;-92
2023/05/12 02:21:57;;;;;;;11.82;3.10;;;;;;;14.19;59.97;99750.84;4462784;32;20119;-90
2023/05/12 02:24:22;;;;;;;5.00;3.28;;;;;;;14.25;59.96;99753.19;4459519;32;20194;-92
2023/05/12 02:26:47;;;;;;;6.22;3.15;;;;;;;14.12;59.96;99754.66;4451842;32;20108;-93
2023/05/12 02:29:13;;;;;;;4.45;3.35;;;;;;;14.14;59.96;99755.44;4456979;32;20112;-89
2023/05/12 02:31:38;;;;;;;6.05;3.58;;;;;;;14.20;59.97;99752.56;4456804;32;20154;-90
2023/05/12 02:34:04;;;;;;;7.28;3.28;;;;;;;14.02;59.96;99754.25;4471875;32;20180;-90
2023/05/12 02:36:29;;;;;;;5.53;3.28;;;;;;;14.11;59.96;99752.97;4472037;32;20092;-89
2023/05/12 02:38:54;;;;;;;5.22;3.03;;;;;;;14.07;59.96;99762.75;4458079;32;27793;-90
2023/05/12 02:41:20;;;;;;;4.75;2.83;;;;;;;14.16;59.97;99756.22;4485728;32;20448;-89
2023/05/12 02:43:45;;;;;;;6.70;3.28;;;;;;;14.11;59.96;99750.34;4472279;32;20124;-90
2023/05/12 02:46:11;;;;;;;4.05;2.80;;;;;;;14.15;59.96;99757.13;4485485;32;20488;-90
2023/05/12 02:48:36;;;;;;;10.70;3.95;;;;;;;14.02;59.96;99748.19;4471950;32;20527;-90
2023/05/12 02:51:02;;;;;;;4.15;2.95;;;;;;;14.09;59.96;99749.56;4472522;32;20100;-91
2023/05/12 02:53:27;;;;;;;5.35;3.50;;;;;;;14.02;59.96;99743.78;4485627;32;20104;-91
2023/05/12 02:55:52;;;;;;;6.72;3.42;;;;;;;14.11;59.96;99747.75;4485128;32;20092;-89
2023/05/12 02:58:18;;;;;;;4.10;3.20;;;;;;;13.94;59.95;99747.66;4485558;32;20110;-90
2023/05/12 03:00:43;;;;;;;4.90;3.50;;;;;;;14.03;59.96;99758.56;4484886;32;25113;-90
2023/05/12 03:03:09;;;;;;;5.53;3.53;;;;;;;14.09;59.97;99747.81;4472273;32;20115;-90
2023/05/12 03:05:34;;;;;;;4.45;3.50;;;;;;;14.14;59.96;99752.81;4459430;32;20310;-90
2023/05/12 03:07:59;;;;;;;7.50;3.17;;;;;;;14.12;59.96;99754.66;4471700;32;28094;-89
2023/05/12 03:10:25;;;;;;;7.65;3.50;;;;;;;14.07;59.96;99756.66;4484867;32;31144;-89
2023/05/12 03:12:50;;;;;;;9.70;2.97;;;;;;;14.12;59.96;99754.66;4484786;32;26568;-89
2023/05/12 03:15:16;;;;;;;4.90;3.40;;;;;;;14.02;59.95;99753.41;4459439;32;20429;-89
2023/05/12 03:17:41;;;;;;;6.25;3.30;;;;;;;14.02;59.95;99753.41;4472434;32;20192;-91
2023/05/12 03:20:07;;;;;;;4.55;3.20;;;;;;;14.08;59.96;99755.72;4472366;32;20122;-89
2023/05/12 03:22:32;;;;;;;4.35;3.42;;;;;;;13.94;59.96;99748.50;4485436;32;20239;-88
2023/05/12 03:24:58;;;;;;;7.07;3.45;;;;;;;13.90;59.95;99749.56;4486863;31;20108;-90
2023/05/12 03:27:23;;;;;;;5.28;3.60;;;;;;;13.93;59.95;99743.34;4472260;32;31695;-88
2023/05/12 03:29:48;;;;;;;6.03;3.15;;;;;;;13.92;59.95;99747.72;4485366;32;33458;-88
2023/05/12 03:32:14;;;;;;;6.05;3.28;;;;;;;13.89;59.95;99752.25;4476686;32;20164;-90
2023/05/12 03:34:39;;;;;;;8.82;3.65;;;;;;;13.90;59.95;99746.94;4460062;32;20445;-90
2023/05/12 03:37:04;;;;;;;4.97;3.10;;;;;;;13.98;59.95;99752.69;4459768;32;20114;-89
2023/05/12 03:39:30;;;;;;;5.68;3.40;;;;;;;13.93;59.95;99754.66;4458438;32;30356;-91
2023/05/12 03:41:55;;;;;;;5.50;3.70;;;;;;;13.92;59.94;99752.97;4459153;32;20189;-89
2023/05/12 03:44:21;;;;;;;4.35;3.10;;;;;;;13.92;59.95;99755.56;4472227;32;20147;-88
2023/05/12 03:46:46;;;;;;;6.60;3.58;;;;;;;13.90;59.95;99759.19;4484469;32;31974;-89
2023/05/12 03:49:12;;;;;;;6.55;3.65;;;;;;;13.87;59.94;99756.72;4485124;32;20112;-89
2023/05/12 03:51:37;;;;;;;8.45;3.72;;;;;;;13.88;59.95;99758.41;4485228;32;20155;-90
2023/05/12 03:54:03;;;;;;;5.78;3.83;;;;;;;13.82;59.94;99760.38;4472014;32;20147;-90
2023/05/12 03:56:28;;;;;;;6.00;3.40;;;;;;;13.70;59.93;99758.31;4472249;32;20475;-91
2023/05/12 03:58:54;;;;;;;7.07;3.67;;;;;;;13.88;59.95;99761.03;4485124;32;20129;-90
2023/05/12 04:01:19;;;;;;;4.60;2.97;;;;;;;13.75;59.94;99756.38;4486271;31;20136;-90
2023/05/12 04:03:45;;;;;;;7.35;2.97;;;;;;;13.79;59.95;99772.75;4472076;32;20112;-92
2023/05/12 04:06:10;;;;;;;4.45;2.87;;;;;;;13.73;59.94;99766.03;4458677;32;20113;-90
2023/05/12 04:08:36;;;;;;;6.90;3.00;;;;;;;13.79;59.95;99768.38;4458497;32;21407;-89
2023/05/12 04:11:02;;;;;;;7.82;2.92;;;;;;;13.75;59.94;99768.59;4484201;32;24208;-91
2023/05/12 04:13:27;;;;;;;8.35;3.40;;;;;;;13.72;59.94;99769.59;4458827;32;20122;-89
2023/05/12 04:15:56;;;;;;;9.95;3.80;;;;;;;13.81;59.95;99768.31;4471881;32;20105;-93
2023/05/12 04:18:22;;;;;;;5.45;3.35;;;;;;;13.80;59.94;99769.22;4471897;32;20104;-90
2023/05/12 04:20:47;;;;;;;6.87;3.78;;;;;;;13.76;59.94;99773.75;4485487;32;20479;-94
2023/05/12 04:23:14;;;;;;;4.18;2.67;;;;;;;13.77;59.94;99778.06;4458934;32;20420;-88
2023/05/12 04:25:39;;;;;;;6.40;3.33;;;;;;;13.76;59.94;99772.91;4484974;32;20088;-92
2023/05/12 04:28:05;;;;;;;5.40;3.47;;;;;;;13.86;59.94;99779.41;4472330;32;20435;-90
2023/05/12 04:30:31;;;;;;;6.40;3.00;;;;;;;13.84;59.94;99768.16;4472168;32;20140;-91
2023/05/12 04:32:56;;;;;;;5.85;3.00;;;;;;;13.85;59.94;99780.34;4459216;32;20449;-92
2023/05/12 04:35:22;;;;;;;5.72;3.78;;;;;;;13.89;59.95;99775.81;4458845;32;20140;-91
2023/05/12 04:37:48;;;;;;;5.82;3.28;;;;;;;13.98;59.95;99778.03;4471656;32;21943;-91
2023/05/12 04:40:13;;;;;;;4.87;2.90;;;;;;;13.90;59.95;99775.72;4458558;32;20189;-90
2023/05/12 04:42:39;;;;;;;7.78;3.42;;;;;;;13.90;59.95;99777.50;4458922;32;20180;-91
2023/05/12 04:45:06;;;;;;;4.60;3.17;;;;;;;14.03;59.96;99773.44;4458704;32;20208;-90
2023/05/12 04:47:31;;;;;;;6.95;3.20;;;;;;;13.96;59.96;99774.59;4471245;32;20159;-90
2023/05/12 04:49:56;;;;;;;6.22;3.70;;;;;;;13.82;59.95;99773.47;4485440;32;20556;-89
2023/05/12 04:52:22;;;;;;;4.55;2.80;;;;;;;13.87;59.94;99775.88;4487691;31;20356;-90
2023/05/12 04:54:48;;;;;;;5.12;3.08;;;;;;;13.93;59.94;99772.13;4478435;32;20093;-90
2023/05/12 04:57:13;;;;;;;4.82;2.90;;;;;;;13.96;59.95;99774.59;4458857;32;20478;-90
2023/05/12 04:59:38;;;;;;;6.32;3.08;;;;;;;13.92;59.94;99784.38;4483963;32;28037;-88
2023/05/12 05:02:04;;;;;;;5.15;3.50;;;;;;;13.96;59.96;99777.22;4485395;32;20410;-90
2023/05/12 05:04:29;;;;;;;4.62;3.15;;;;;;;13.77;59.94;99782.44;4471447;32;20437;-90
2023/05/12 05:06:55;;;;;;;5.10;3.35;;;;;;;13.91;59.95;99787.06;4471068;32;20124;-90
2023/05/12 05:09:20;;;;;;;4.93;3.10;;;;;;;13.96;59.95;99785.06;4458501;32;20128;-92
2023/05/12 05:11:46;;;;;;;4.62;3.30;;;;;;;14.03;59.96;99781.28;4457495;32;26420;-91
2023/05/12 05:14:11;;;;;;;4.70;3.30;;;;;;;14.02;59.96;99788.28;4458136;32;20147;-91
2023/05/12 05:16:37;;;;;;;4.55;3.20;;;;;;;14.19;59.97;99790.09;4470765;32;22929;-92
2023/05/12 05:19:02;;;;;;;4.93;3.05;;;;;;;14.30;59.96;99790.47;4457717;32;20542;-89
2023/05/12 05:21:27;;;;;;;6.62;3.60;;;;;;;14.27;59.97;99780.16;4471213;32;20104;-90
2023/05/12 05:23:53;;;;;;;5.82;3.33;;;;;;;14.19;59.96;99784.88;4458191;32;20136;-90
2023/05/12 05:26:20;;;;;;;5.35;3.55;;;;;;;14.19;59.96;99792.72;4458093;32;20473;-91
2023/05/12 05:28:45;;;;;;;7.55;3.17;;;;;;;14.14;59.96;99789.47;4484256;32;20192;-92
2023/05/12 05:31:17;;;;;;;7.47;3.10;;;;;;;14.26;59.96;99788.06;4471299;32;20101;-92
2023/05/12 05:33:43;;;;;;;5.50;3.12;;;;;;;14.29;59.97;99794.00;4471027;32;20172;-90
2023/05/12 05:36:09;;;;;;;6.57;2.70;;;;;;;14.41;59.98;99789.97;4458090;32;20122;-93
2023/05/12 05:38:35;;;;;;;9.73;2.95;;;;;;;14.47;59.98;99787.09;4457952;32;20177;-91
2023/05/12 05:41:00;;;;;;;4.30;2.83;;;;;;;14.47;59.97;99781.88;4485230;31;20085;-91
2023/05/12 05:43:25;;;;;;;4.62;3.00;;;;;;;14.50;59.98;99788.72;4457784;32;20092;-90
2023/05/12 05:45:51;;;;;;;8.02;4.20;;;;;;;14.52;59.98;99790.34;4457112;32;24672;-91
2023/05/12 05:48:17;;;;;;;6.28;3.25;;;;;;;14.58;59.98;99792.66;4458030;32;20126;-91
2023/05/12 05:50:42;;;;;;;3.95;2.75;;;;;;;14.68;59.99;99795.72;4457741;32;20118;-90
2023/05/12 05:53:08;;;;;;;7.45;3.25;;;;;;;14.75;59.99;99797.09;4470697;32;20450;-90
2023/05/12 05:55:33;;;;;;;5.22;3.10;;;;;;;14.58;59.98;99800.53;4457692;32;20418;-91
2023/05/12 05:57:59;;;;;;;8.50;3.53;;;;;;;14.74;59.99;99795.41;4471129;32;20474;-91
2023/05/12 06:00:24;;;;;;;4.72;2.60;;;;;;;14.75;59.99;99797.09;4459935;32;20085;-88
2023/05/12 06:02:49;;;;;;;4.45;3.35;;;;;;;14.61;59.98;99807.38;4472967;32;20177;-90
2023/05/12 06:05:15;;;;;;;5.47;2.85;;;;;;;14.59;59.99;99804.00;4486290;32;20457;-90
2023/05/12 06:07:40;;;;;;;5.43;3.28;;;;;;;14.56;59.98;99805.00;4473340;32;20104;-93
2023/05/12 06:10:06;;;;;;;7.55;3.50;;;;;;;14.57;59.98;99811.94;4460705;32;20139;-92
2023/05/12 06:12:32;;;;;;;8.85;3.95;;;;;;;14.67;59.99;99818.44;4461536;32;20092;-91
2023/05/12 06:14:57;;;;;;;5.28;3.08;;;;;;;14.68;59.99;99808.81;4489134;32;20151;-92
2023/05/12 06:17:23;;;;;;;6.70;3.25;;;;;;;14.77;59.99;99808.38;4463394;32;20201;-91
2023/05/12 06:19:49;;;;;;;5.50;3.45;;;;;;;14.88;60.00;99815.69;4486288;32;20184;-90
2023/05/12 06:22:14;;;;;;;5.53;3.30;;;;;;;14.69;59.99;99818.37;4473050;32;20101;-90
2023/05/12 06:24:40;;;;;;;4.85;3.65;;;;;;;14.75;59.99;99812.84;4472152;32;29167;-92
2023/05/12 06:27:06;;;;;;;6.62;3.62;;;;;;;14.68;59.99;99814.06;4459731;32;20443;-92
2023/05/12 06:29:31;;;;;;;6.87;4.10;;;;;;;14.68;59.98;99812.28;4473167;32;20115;-90
2023/05/12 06:31:57;;;;;;;7.65;3.58;;;;;;;14.71;59.98;99813.91;4472212;32;25738;-92
2023/05/12 06:34:22;;;;;;;7.25;3.40;;;;;;;14.78;60.00;99817.91;4459231;32;33225;-93
2023/05/12 06:36:48;;;;;;;8.18;4.18;;;;;;;14.68;59.99;99816.69;4472797;32;20104;-90
2023/05/12 06:39:13;;;;;;;7.18;4.05;;;;;;;14.71;59.99;99812.13;4485675;32;20119;-90
2023/05/12 06:41:39;;;;;;;5.87;3.78;;;;;;;14.87;60.01;99812.22;4459557;32;20161;-92
2023/05/12 06:44:05;;;;;;;9.38;4.43;;;;;;;15.00;60.00;99812.50;4459759;32;20392;-89
2023/05/12 06:46:31;;;;;;;7.43;4.62;;;;;;;15.02;60.00;99810.63;4459996;32;20138;-90
2023/05/12 06:48:56;;;;;;;6.30;3.47;;;;;;;15.07;60.00;99797.28;4459977;32;20406;-91
2023/05/12 06:51:21;;;;;;;8.52;3.85;;;;;;;14.95;60.00;99810.09;4459465;32;20140;-90
2023/05/12 06:53:47;;;;;;;5.18;3.62;;;;;;;15.10;60.02;99807.62;4459482;32;20155;-91
2023/05/12 06:56:15;;;;;;;8.20;4.60;;;;;;;15.17;60.02;99798.56;4472590;32;20165;-91
2023/05/12 06:58:42;;;;;;;6.03;3.83;;;;;;;15.20;60.01;99801.03;4460304;32;20842;-91
2023/05/12 07:01:07;;;;;;;6.70;4.07;;;;;;;15.08;60.01;99804.22;4472654;32;20502;-92
2023/05/12 07:03:32;;;;;;;5.03;3.72;;;;;;;15.13;60.01;99805.69;4472436;32;20147;-91
2023/05/12 07:05:58;;;;;;;6.87;4.12;;;;;;;15.17;60.02;99812.50;4472613;32;20185;-92
2023/05/12 07:08:23;;;;;;;6.78;4.15;;;;;;;15.35;60.02;99803.69;4459703;32;20138;-92
2023/05/12 07:10:49;;;;;;;6.80;3.53;;;;;;;15.29;60.02;99808.41;4459350;32;20100;-91
2023/05/12 07:13:14;;;;;;;5.72;4.05;;;;;;;15.34;60.03;99806.41;4472662;32;20152;-90
2023/05/12 07:15:40;;;;;;;8.10;3.80;;;;;;;15.37;60.02;99801.00;4472303;32;22010;-91
2023/05/12 07:18:05;;;;;;;5.28;3.97;;;;;;;15.39;60.02;99808.81;4472804;32;20436;-92
2023/05/12 07:20:31;;;;;;;8.52;4.12;;;;;;;15.48;60.04;99809.19;4472104;32;29732;-92
2023/05/12 07:22:56;;;;;;;8.30;4.00;;;;;;;15.65;60.04;99817.06;4472617;32;20131;-91
2023/05/12 07:25:22;;;;;;;6.68;4.15;;;;;;;15.62;60.03;99814.62;4458888;32;20496;-91
2023/05/12 07:27:48;;;;;;;9.07;4.80;;;;;;;15.63;60.04;99815.47;4472230;32;20093;-91
2023/05/12 07:30:13;;;;;;;7.35;4.50;;;;;;;15.51;60.03;99811.63;4472516;32;20092;-90
2023/05/12 07:32:38;;;;;;;6.57;3.90;;;;;;;15.60;60.03;99816.44;4485745;32;20104;-92
2023/05/12 07:35:04;;;;;;;7.72;4.60;;;;;;;15.62;60.03;99814.62;4461109;32;20509;-91
2023/05/12 07:37:30;;;;;;;7.53;4.20;;;;;;;15.72;60.04;99804.47;4465787;32;20156;-91
2023/05/12 07:39:56;;;;;;;5.60;4.10;;;;;;;15.69;60.04;99809.03;4463580;32;20160;-89
2023/05/12 07:42:22;;;;;;;8.35;4.90;;;;;;;15.73;60.04;99807.94;4486805;31;20100;-90
2023/05/12 07:44:47;;;;;;;6.85;4.37;;;;;;;15.67;60.04;99810.91;4485519;32;20112;-89
2023/05/12 07:47:13;;;;;;;5.30;4.05;;;;;;;15.82;60.05;99808.31;4472284;32;20100;-90
2023/05/12 07:49:38;;;;;;;5.85;4.55;;;;;;;15.80;60.05;99815.41;4459203;32;20096;-90
2023/05/12 07:52:04;;;;;;;7.00;3.58;;;;;;;15.75;60.05;99812.19;4459015;32;20499;-91
2023/05/12 07:54:29;;;;;;;4.78;3.65;;;;;;;15.86;60.04;99812.47;4472163;32;20193;-91
2023/05/12 07:56:54;;;;;;;5.05;3.30;;;;;;;16.01;60.06;99816.06;4459102;32;20166;-91
2023/05/12 07:59:20;;;;;;;6.68;3.45;;;;;;;16.12;60.06;99810.25;4458860;32;20391;-91
2023/05/12 08:01:45;;;;;;;6.65;3.53;;;;;;;16.24;60.07;99813.03;4483286;32;27527;-88
2023/05/12 08:04:11;;;;;;;5.07;3.37;;;;;;;16.33;60.08;99809.09;4470710;32;20113;-89
2023/05/12 08:06:36;;;;;;;6.32;3.25;;;;;;;16.32;60.08;99817.87;4457154;32;30010;-89
2023/05/12 08:09:01;;;;;;;5.05;3.42;;;;;;;16.39;60.08;99819.25;4470858;32;20488;-91
2023/05/12 08:11:27;;;;;;;7.82;3.83;;;;;;;16.33;60.08;99814.34;4470716;32;20120;-88
2023/05/12 08:13:52;;;;;;;4.50;3.35;;;;;;;16.46;60.08;99817.13;4484788;32;20206;-90
2023/05/12 08:16:18;;;;;;;4.10;3.20;;;;;;;16.45;60.08;99824.16;4457568;32;20126;-90
2023/05/12 08:18:43;;;;;;;5.10;3.72;;;;;;;16.44;60.08;99826.88;4471738;32;20136;-91
2023/05/12 08:21:09;;;;;;;4.47;3.33;;;;;;;16.33;60.08;99821.38;4484038;32;20341;-90
2023/05/12 08:23:36;;;;;;;9.23;3.60;;;;;;;16.31;60.07;99820.59;4484845;32;20127;-90
2023/05/12 08:26:02;;;;;;;7.60;3.60;;;;;;;16.25;60.07;99822.62;4484934;32;20163;-91
2023/05/12 08:28:28;;;;;;;7.20;3.30;;;;;;;16.41;60.08;99825.28;4472016;32;20156;-90
2023/05/12 08:30:53;;;;;;;4.95;3.37;;;;;;;16.51;60.09;99823.81;4484980;32;20100;-90
2023/05/12 08:33:18;;;;;;;6.45;3.58;;;;;;;16.63;60.10;99826.72;4471496;32;20157;-90
2023/05/12 08:35:45;;;;;;;6.20;3.55;;;;;;;16.69;60.09;99832.50;4471883;32;20198;-89
2023/05/12 08:38:11;;;;;;;8.82;3.75;;;;;;;16.57;60.09;99827.91;4458940;32;20156;-90
2023/05/12 08:41:27;;;;;;;4.45;3.33;;;;;;;16.55;60.09;99835.84;4471296;32;20627;-90
2023/05/12 08:43:52;;;;;;;5.65;3.90;;;;;;;16.72;60.10;99834.09;4450126;32;20116;-91
2023/05/12 08:46:18;;;;;;;6.72;3.60;;;;;;;16.79;60.10;99836.28;4484207;32;31743;-91
2023/05/12 08:48:46;;;;;;;5.90;3.62;;;;;;;16.78;60.11;99831.13;4471657;32;20216;-91
2023/05/12 08:51:12;;;;;;;5.80;3.80;;;;;;;16.80;60.10;99835.41;4472016;32;20131;-90
2023/05/12 08:53:39;;;;;;;4.65;3.62;;;;;;;16.77;60.11;99838.16;4472172;32;20112;-90
2023/05/12 08:56:06;;;;;;;7.37;4.30;;;;;;;16.73;60.10;99839.28;4473432;32;20096;-90
2023/05/12 08:58:32;;;;;;;7.47;3.33;;;;;;;16.81;60.10;99844.97;4474295;32;20197;-89
2023/05/12 09:01:03;;;;;;;5.80;4.00;;;;;;;16.75;60.09;99844.44;4486848;32;20152;-89
2023/05/12 09:03:29;;;;;;;5.57;3.95;;;;;;;16.77;60.11;99846.06;4484599;32;20096;-91
2023/05/12 09:05:55;;;;;;;6.62;4.18;;;;;;;16.73;60.09;99847.16;4458639;32;20402;-90
2023/05/12 09:08:20;;;;;;;7.30;4.30;;;;;;;16.68;60.09;99851.84;4471479;32;20080;-90
2023/05/12 09:10:46;;;;;;;8.85;4.47;;;;;;;16.72;60.10;99853.34;4471522;32;20096;-90
2023/05/12 09:13:19;;;;;;;8.90;5.10;;;;;;;16.62;60.10;99853.94;4458274;32;20142;-90
2023/05/12 09:15:45;;;;;;;5.25;4.00;;;;;;;16.62;60.10;99857.41;4471431;32;20131;-90
2023/05/12 09:18:11;;;;;;;6.25;4.25;;;;;;;16.69;60.09;99856.16;4458572;32;20477;-90
2023/05/12 09:20:36;;;;;;;6.68;3.90;;;;;;;16.64;60.10;99847.66;4484374;32;20129;-90
2023/05/12 09:23:19;;;;;;;10.38;4.22;;;;;;;16.50;60.09;99856.28;4457907;32;20454;-90
2023/05/12 09:25:45;;;;;;;5.37;3.85;;;;;;;16.12;60.07;99853.12;4484472;32;20172;-90
2023/05/12 09:28:11;;;;;;;10.57;6.30;;;;;;;16.07;60.06;99865.63;4458470;32;20108;-90
2023/05/12 09:30:37;;;;;;;5.78;4.47;;;;;;;15.91;60.05;99867.38;4470967;32;20160;-90
2023/05/12 09:33:12;;;;;;;5.40;4.30;;;;;;;16.16;60.07;99873.03;4472500;32;20108;-89
2023/05/12 09:35:41;;;;;;;5.45;3.30;;;;;;;16.13;60.06;99877.59;4473292;32;20813;-90
2023/05/12 09:38:07;;;;;;;5.97;4.07;;;;;;;16.18;60.07;99875.56;4460408;32;20096;-91
2023/05/12 09:40:33;;;;;;;5.62;3.62;;;;;;;15.95;60.06;99882.03;4460227;32;20137;-89
2023/05/12 09:42:58;;;;;;;4.80;3.62;;;;;;;16.11;60.06;99875.06;4485738;32;22310;-91
2023/05/12 09:45:24;;;;;;;5.30;3.53;;;;;;;16.08;60.06;99876.97;4473064;32;20116;-89
2023/05/12 09:47:49;;;;;;;5.87;3.87;;;;;;;16.07;60.06;99881.38;4485666;32;25293;-90
2023/05/12 09:50:14;;;;;;;4.55;3.65;;;;;;;15.95;60.06;99884.66;4486065;32;20145;-90
2023/05/12 09:52:40;;;;;;;5.50;3.85;;;;;;;16.04;60.06;99886.78;4486182;32;20139;-89
2023/05/12 09:55:09;;;;;;;5.85;4.12;;;;;;;15.92;60.05;99884.81;4459940;32;20163;-90
2023/05/12 09:57:40;;;;;;;6.85;3.42;;;;;;;15.76;60.04;99884.75;4486050;32;20084;-91
2023/05/12 10:00:18;;;;;;;3.60;3.00;;;;;;;15.75;60.05;99880.41;4460568;32;20112;-90
2023/05/12 10:02:43;;;;;;;4.72;3.50;;;;;;;15.61;60.03;99877.63;4486197;32;20109;-91
2023/05/12 10:05:19;;;;;;;5.87;3.15;;;;;;;15.54;60.03;99881.47;4486185;32;20165;-90
2023/05/12 10:07:47;;;;;;;5.28;3.10;;;;;;;15.56;60.04;99890.12;4473065;32;20110;-89
2023/05/12 10:10:21;;;;;;;5.00;3.20;;;;;;;15.38;60.03;99878.78;4473189;32;20108;-90
2023/05/12 10:12:46;;;;;;;5.75;3.67;;;;;;;15.36;60.02;99880.59;4473324;32;20069;-90
2023/05/12 10:15:12;;;;;;;6.90;3.75;;;;;;;15.36;60.03;99888.47;4486224;32;20179;-90
2023/05/12 10:17:37;;;;;;;4.93;3.37;;;;;;;15.20;60.02;99883.16;4474302;32;20361;-91
2023/05/12 10:20:05;;;;;;;6.70;3.03;;;;;;;15.21;60.01;99876.12;4474709;32;29325;-91
2023/05/12 10:22:35;;;;;;;6.20;4.20;;;;;;;15.29;60.02;99879.22;4461948;32;20130;-90
2023/05/12 10:25:01;;;;;;;8.80;3.75;;;;;;;15.28;60.02;99873.13;4460319;32;20092;-91
2023/05/12 10:27:28;;;;;;;7.05;4.07;;;;;;;15.21;60.01;99873.50;4473002;32;20099;-91
2023/05/12 10:29:53;;;;;;;9.35;3.75;;;;;;;15.23;60.02;99872.50;4459622;32;20612;-90
2023/05/12 10:32:18;;;;;;;7.05;4.50;;;;;;;15.18;60.02;99877.13;4472800;32;20112;-91
2023/05/12 10:34:44;;;;;;;9.15;4.25;;;;;;;15.34;60.02;99879.84;4472215;32;22685;-90
2023/05/12 10:37:09;;;;;;;6.85;4.45;;;;;;;15.17;60.02;99878.06;4472813;32;20143;-91
2023/05/12 10:39:35;;;;;;;7.12;3.87;;;;;;;15.02;60.01;99874.41;4472804;32;20109;-90
2023/05/12 10:42:07;;;;;;;6.12;4.32;;;;;;;15.03;60.01;99886.56;4487137;31;20092;-90
2023/05/12 10:44:34;;;;;;;6.95;4.30;;;;;;;14.87;60.00;99887.37;4485205;32;20592;-89
2023/05/12 10:47:00;;;;;;;7.10;4.37;;;;;;;14.90;60.00;99885.44;4472897;32;20250;-90
2023/05/12 10:49:33;;;;;;;6.05;4.18;;;;;;;14.97;60.00;99886.03;4472478;32;20512;-91
2023/05/12 10:51:59;;;;;;;6.37;4.35;;;;;;;15.03;60.01;99889.19;4485645;32;20143;-91
2023/05/12 10:54:25;;;;;;;14.07;4.90;;;;;;;14.98;60.00;99885.97;4459633;32;20825;-92
2023/05/12 10:56:50;;;;;;;8.93;5.37;;;;;;;14.92;60.00;99891.50;4459190;32;20237;-91
2023/05/12 10:59:17;;;;;;;7.80;5.15;;;;;;;15.08;60.00;99894.22;4459205;32;20123;-90
2023/05/12 11:01:59;;;;;;;8.32;5.50;;;;;;;14.89;60.00;99891.63;4472741;32;20158;-90
2023/05/12 11:04:35;;;;;;;8.80;5.50;;;;;;;14.94;59.99;99886.19;4485636;32;20089;-90
2023/05/12 11:07:00;;;;;;;9.45;5.22;;;;;;;15.01;60.00;99895.44;4485628;32;20084;-91
2023/05/12 11:09:26;;;;;;;12.00;5.97;;;;;;;14.99;60.01;99894.66;4472196;32;20193;-91
2023/05/12 11:11:51;;;;;;;8.85;5.10;;;;;;;15.11;60.01;99887.97;4485600;32;20388;-91
2023/05/12 11:14:16;;;;;;;6.65;5.12;;;;;;;15.37;60.02;99895.41;4472416;32;20105;-92
2023/05/12 11:16:45;;;;;;;7.80;4.65;;;;;;;15.46;60.02;99894.97;4472413;32;20197;-89
2023/05/12 11:19:11;;;;;;;6.90;5.30;;;;;;;15.41;60.03;99886.50;4484229;32;20108;-90
2023/05/12 11:21:36;;;;;;;8.40;5.15;;;;;;;15.52;60.03;99888.56;4471820;32;20129;-91
2023/05/12 11:24:02;;;;;;;6.12;4.78;;;;;;;15.71;60.05;99878.03;4471965;32;20136;-90
2023/05/12 11:26:28;;;;;;;6.00;4.62;;;;;;;15.82;60.05;99886.19;4459352;32;20167;-91
2023/05/12 11:28:55;;;;;;;7.57;4.43;;;;;;;15.89;60.06;99887.59;4459260;32;20139;-91